createdAt,value
2019-02-16T00:00:59.910Z,5.49
2019-02-16T00:01:59.849Z,5.46
2019-02-16T00:02:59.840Z,5.53
2019-02-16T00:03:59.828Z,5.45
2019-02-16T00:04:59.817Z,5.45
2019-02-16T00:05:59.879Z,5.49
2019-02-16T00:06:59.805Z,5.51
2019-02-16T00:07:59.785Z,5.43
2019-02-16T00:08:59.774Z,5.48
2019-02-16T00:09:59.800Z,5.48
2019-02-16T00:10:59.778Z,5.48
2019-02-16T00:11:59.742Z,5.51
2019-02-16T00:12:59.731Z,5.38
2019-02-16T00:13:59.721Z,5.43
2019-02-16T00:14:59.709Z,5.45
2019-02-16T00:15:59.734Z,5.48
2019-02-16T00:16:59.691Z,5.46
2019-02-16T00:17:59.680Z,5.42
2019-02-16T00:18:59.670Z,5.49
2019-02-16T00:19:59.654Z,5.46
2019-02-16T00:21:04.053Z,5.43
2019-02-16T00:21:59.636Z,5.40
2019-02-16T00:22:59.625Z,5.49
2019-02-16T00:23:59.620Z,5.54
2019-02-16T00:24:59.605Z,5.43
2019-02-16T00:25:59.622Z,5.46
2019-02-16T00:26:59.584Z,5.43
2019-02-16T00:27:59.573Z,5.48
2019-02-16T00:28:59.561Z,5.43
2019-02-16T00:29:59.591Z,5.48
2019-02-16T00:30:59.567Z,5.51
2019-02-16T00:31:59.532Z,5.39
2019-02-16T00:32:59.551Z,5.45
2019-02-16T00:33:59.558Z,5.39
2019-02-16T00:34:59.498Z,5.43
2019-02-16T00:35:59.513Z,5.45
2019-02-16T00:36:59.479Z,5.40
2019-02-16T00:37:59.468Z,5.38
2019-02-16T00:38:59.472Z,5.36
2019-02-16T00:39:59.448Z,5.36
2019-02-16T00:40:59.469Z,5.39
2019-02-16T00:41:59.426Z,5.35
2019-02-16T00:42:59.416Z,5.40
2019-02-16T00:43:59.403Z,5.38
2019-02-16T00:44:59.406Z,5.39
2019-02-16T00:45:59.409Z,5.36
2019-02-16T00:46:59.372Z,5.40
2019-02-16T00:47:59.362Z,5.27
2019-02-16T00:48:59.352Z,5.30
2019-02-16T00:49:59.341Z,5.38
2019-02-16T00:50:59.360Z,5.36
2019-02-16T00:51:59.330Z,5.36
2019-02-16T00:52:59.308Z,5.35
2019-02-16T00:53:59.299Z,5.36
2019-02-16T00:54:59.295Z,5.40
2019-02-16T00:55:59.343Z,5.39
2019-02-16T00:56:59.278Z,5.40
2019-02-16T00:57:59.255Z,5.39
2019-02-16T00:58:59.247Z,5.33
2019-02-16T00:59:59.234Z,5.42
2019-02-16T01:00:59.252Z,5.31
2019-02-16T01:01:59.216Z,5.38
2019-02-16T01:02:59.207Z,5.35
2019-02-16T01:03:59.199Z,5.38
2019-02-16T01:04:59.184Z,5.25
2019-02-16T01:05:59.206Z,5.33
2019-02-16T01:06:59.163Z,5.40
2019-02-16T01:07:59.152Z,5.40
2019-02-16T01:08:59.142Z,5.28
2019-02-16T01:09:59.133Z,5.31
2019-02-16T01:10:59.144Z,5.40
2019-02-16T01:11:59.108Z,5.35
2019-02-16T01:12:59.098Z,5.38
2019-02-16T01:13:59.092Z,5.42
2019-02-16T01:14:59.077Z,5.39
2019-02-16T01:15:59.091Z,5.43
2019-02-16T01:16:59.058Z,5.40
2019-02-16T01:17:59.045Z,5.38
2019-02-16T01:18:59.036Z,5.31
2019-02-16T01:19:59.028Z,5.28
2019-02-16T01:20:59.040Z,5.33
2019-02-16T01:21:59.008Z,5.28
2019-02-16T01:22:58.993Z,5.30
2019-02-16T01:23:58.984Z,5.28
2019-02-16T01:24:58.978Z,5.27
2019-02-16T01:25:58.985Z,5.20
2019-02-16T01:26:58.954Z,5.15
2019-02-16T01:27:58.942Z,5.13
2019-02-16T01:28:58.939Z,5.17
2019-02-16T01:29:58.920Z,5.17
2019-02-16T01:30:58.934Z,5.07
2019-02-16T01:31:58.903Z,5.12
2019-02-16T01:32:58.894Z,5.10
2019-02-16T01:33:58.878Z,5.12
2019-02-16T01:34:58.865Z,5.03
2019-02-16T01:35:58.882Z,5.10
2019-02-16T01:36:58.847Z,5.12
2019-02-16T01:37:58.841Z,5.07
2019-02-16T01:38:58.825Z,5.09
2019-02-16T01:39:58.814Z,4.96
2019-02-16T01:40:58.833Z,5.00
2019-02-16T01:41:58.796Z,4.91
2019-02-16T01:42:58.790Z,4.85
2019-02-16T01:43:58.771Z,4.89
2019-02-16T01:44:58.762Z,4.89
2019-02-16T01:45:58.793Z,4.86
2019-02-16T01:46:58.767Z,4.85
2019-02-16T01:47:58.730Z,4.70
2019-02-16T01:48:58.719Z,4.72
2019-02-16T01:49:58.709Z,4.75
2019-02-16T01:50:58.736Z,4.73
2019-02-16T01:51:58.689Z,4.69
2019-02-16T01:52:58.677Z,4.67
2019-02-16T01:53:58.667Z,4.72
2019-02-16T01:54:58.656Z,4.66
2019-02-16T01:55:58.675Z,4.77
2019-02-16T01:56:58.638Z,4.73
2019-02-16T01:57:58.628Z,4.66
2019-02-16T01:58:58.615Z,4.65
2019-02-16T01:59:58.630Z,4.67
2019-02-16T02:00:58.615Z,4.66
2019-02-16T02:01:58.583Z,4.65
2019-02-16T02:02:58.572Z,4.65
2019-02-16T02:03:58.559Z,4.70
2019-02-16T02:04:58.552Z,4.69
2019-02-16T02:05:58.564Z,4.67
2019-02-16T02:06:58.528Z,4.59
2019-02-16T02:07:58.517Z,4.70
2019-02-16T02:08:58.509Z,4.77
2019-02-16T02:09:58.516Z,4.70
2019-02-16T02:10:58.511Z,4.70
2019-02-16T02:11:58.474Z,4.62
2019-02-16T02:12:58.466Z,4.59
2019-02-16T02:13:58.454Z,4.58
2019-02-16T02:14:58.442Z,4.62
2019-02-16T02:15:58.469Z,4.60
2019-02-16T02:16:58.418Z,4.50
2019-02-16T02:17:58.409Z,4.51
2019-02-16T02:18:58.398Z,4.51
2019-02-16T02:19:58.385Z,4.48
2019-02-16T02:20:58.422Z,4.51
2019-02-16T02:21:58.373Z,4.42
2019-02-16T02:22:58.354Z,4.42
2019-02-16T02:23:58.345Z,4.47
2019-02-16T02:24:58.332Z,4.47
2019-02-16T02:25:58.349Z,4.45
2019-02-16T02:26:58.319Z,4.50
2019-02-16T02:27:58.299Z,4.48
2019-02-16T02:28:58.288Z,4.52
2019-02-16T02:29:58.277Z,4.45
2019-02-16T02:30:58.302Z,4.44
2019-02-16T02:31:58.256Z,4.40
2019-02-16T02:32:58.256Z,4.45
2019-02-16T02:33:58.233Z,4.44
2019-02-16T02:34:58.223Z,4.41
2019-02-16T02:35:58.237Z,4.34
2019-02-16T02:36:58.202Z,4.36
2019-02-16T02:37:58.196Z,4.34
2019-02-16T02:38:58.179Z,4.40
2019-02-16T02:39:58.170Z,4.33
2019-02-16T02:40:58.184Z,4.27
2019-02-16T02:41:58.144Z,4.32
2019-02-16T02:42:58.134Z,4.32
2019-02-16T02:43:58.125Z,4.29
2019-02-16T02:44:58.118Z,4.26
2019-02-16T02:45:58.128Z,4.20
2019-02-16T02:46:58.099Z,4.18
2019-02-16T02:47:58.087Z,4.22
2019-02-16T02:48:58.073Z,4.14
2019-02-16T02:49:58.060Z,4.12
2019-02-16T02:50:58.075Z,4.11
2019-02-16T02:51:58.038Z,4.15
2019-02-16T02:52:58.029Z,4.20
2019-02-16T02:53:58.019Z,4.14
2019-02-16T02:54:58.005Z,4.09
2019-02-16T02:55:58.038Z,4.16
2019-02-16T02:56:57.984Z,4.24
2019-02-16T02:57:57.979Z,4.18
2019-02-16T02:58:57.961Z,4.12
2019-02-16T02:59:57.961Z,4.22
2019-02-16T03:00:57.968Z,4.16
2019-02-16T03:01:57.932Z,4.09
2019-02-16T03:02:57.919Z,4.09
2019-02-16T03:03:57.909Z,4.11
2019-02-16T03:04:57.899Z,4.04
2019-02-16T03:05:57.925Z,4.06
2019-02-16T03:06:57.877Z,3.96
2019-02-16T03:07:57.866Z,4.12
2019-02-16T03:08:57.867Z,3.98
2019-02-16T03:09:57.847Z,3.97
2019-02-16T03:10:57.861Z,3.98
2019-02-16T03:11:57.823Z,4.04
2019-02-16T03:12:57.813Z,3.97
2019-02-16T03:13:57.807Z,3.97
2019-02-16T03:14:57.794Z,3.98
2019-02-16T03:15:57.817Z,4.02
2019-02-16T03:16:57.772Z,3.94
2019-02-16T03:17:57.760Z,3.97
2019-02-16T03:18:57.758Z,3.93
2019-02-16T03:19:57.745Z,4.00
2019-02-16T03:20:57.756Z,3.91
2019-02-16T03:22:02.970Z,3.91
2019-02-16T03:22:58.708Z,3.87
2019-02-16T03:23:57.762Z,3.78
2019-02-16T03:24:57.691Z,3.97
2019-02-16T03:25:57.704Z,3.84
2019-02-16T03:26:57.669Z,3.87
2019-02-16T03:27:57.669Z,3.88
2019-02-16T03:28:57.647Z,3.84
2019-02-16T03:29:57.637Z,3.88
2019-02-16T03:30:57.657Z,3.88
2019-02-16T03:31:57.617Z,3.97
2019-02-16T03:32:57.608Z,3.84
2019-02-16T03:33:57.603Z,3.88
2019-02-16T03:34:57.595Z,3.93
2019-02-16T03:35:57.603Z,3.98
2019-02-16T03:36:57.563Z,3.93
2019-02-16T03:37:57.553Z,3.96
2019-02-16T03:38:57.546Z,3.91
2019-02-16T03:39:57.540Z,3.96
2019-02-16T03:40:57.545Z,3.96
2019-02-16T03:41:57.508Z,4.02
2019-02-16T03:42:57.499Z,3.96
2019-02-16T03:43:57.487Z,3.93
2019-02-16T03:44:57.478Z,3.96
2019-02-16T03:45:57.490Z,3.97
2019-02-16T03:46:57.460Z,3.96
2019-02-16T03:47:57.447Z,3.96
2019-02-16T03:48:57.437Z,4.00
2019-02-16T03:49:57.426Z,3.98
2019-02-16T03:50:57.444Z,4.00
2019-02-16T03:51:57.429Z,3.94
2019-02-16T03:52:57.394Z,3.94
2019-02-16T03:53:57.387Z,4.02
2019-02-16T03:54:57.376Z,3.98
2019-02-16T03:55:57.388Z,3.93
2019-02-16T03:56:57.353Z,3.94
2019-02-16T03:57:57.342Z,3.94
2019-02-16T03:58:57.334Z,3.91
2019-02-16T03:59:57.321Z,3.79
2019-02-16T04:00:57.341Z,3.79
2019-02-16T04:01:57.302Z,3.87
2019-02-16T04:02:57.289Z,3.80
2019-02-16T04:03:57.278Z,3.83
2019-02-16T04:04:57.285Z,3.75
2019-02-16T04:05:57.284Z,3.69
2019-02-16T04:06:57.249Z,3.83
2019-02-16T04:07:57.243Z,3.86
2019-02-16T04:08:57.231Z,3.80
2019-02-16T04:09:57.217Z,3.83
2019-02-16T04:10:57.233Z,3.80
2019-02-16T04:11:57.196Z,3.75
2019-02-16T04:12:57.184Z,3.70
2019-02-16T04:13:57.178Z,3.78
2019-02-16T04:14:57.166Z,3.83
2019-02-16T04:15:57.193Z,3.83
2019-02-16T04:16:57.144Z,3.70
2019-02-16T04:17:57.134Z,3.72
2019-02-16T04:18:57.121Z,3.66
2019-02-16T04:19:57.111Z,3.69
2019-02-16T04:20:57.101Z,3.75
2019-02-16T04:21:57.126Z,3.69
2019-02-16T04:22:57.090Z,3.73
2019-02-16T04:23:57.073Z,3.61
2019-02-16T04:24:57.065Z,3.70
2019-02-16T04:25:57.048Z,3.60
2019-02-16T04:26:57.037Z,3.68
2019-02-16T04:27:57.062Z,3.60
2019-02-16T04:28:57.019Z,3.54
2019-02-16T04:29:57.005Z,3.57
2019-02-16T04:30:56.995Z,3.58
2019-02-16T04:31:56.982Z,3.55
2019-02-16T04:32:56.974Z,3.47
2019-02-16T04:33:56.985Z,3.51
2019-02-16T04:34:56.951Z,3.54
2019-02-16T04:35:56.942Z,3.52
2019-02-16T04:36:56.930Z,3.40
2019-02-16T04:37:56.933Z,3.42
2019-02-16T04:38:56.947Z,3.42
2019-02-16T04:39:56.898Z,3.40
2019-02-16T04:40:56.888Z,3.42
2019-02-16T04:41:56.877Z,3.36
2019-02-16T04:42:56.869Z,3.35
2019-02-16T04:43:56.867Z,3.31
2019-02-16T04:44:56.884Z,3.26
2019-02-16T04:45:56.837Z,3.33
2019-02-16T04:46:56.826Z,3.29
2019-02-16T04:47:56.831Z,3.29
2019-02-16T04:48:56.805Z,3.23
2019-02-16T04:49:56.791Z,3.23
2019-02-16T04:50:56.818Z,3.28
2019-02-16T04:51:56.773Z,3.13
2019-02-16T04:52:56.761Z,3.20
2019-02-16T04:53:56.752Z,3.24
2019-02-16T04:54:56.743Z,3.21
2019-02-16T04:55:56.753Z,3.14
2019-02-16T04:56:56.718Z,3.21
2019-02-16T04:57:56.710Z,3.15
2019-02-16T04:58:56.698Z,3.26
2019-02-16T04:59:56.687Z,3.24
2019-02-16T05:00:56.715Z,3.20
2019-02-16T05:01:56.665Z,3.13
2019-02-16T05:02:56.660Z,3.14
2019-02-16T05:03:56.644Z,3.14
2019-02-16T05:04:56.633Z,3.14
2019-02-16T05:05:56.623Z,3.14
2019-02-16T05:06:56.640Z,3.14
2019-02-16T05:07:56.601Z,3.13
2019-02-16T05:08:56.593Z,3.15
2019-02-16T05:09:56.580Z,3.13
2019-02-16T05:10:56.592Z,3.18
2019-02-16T05:11:56.601Z,3.24
2019-02-16T05:12:56.550Z,3.17
2019-02-16T05:13:56.539Z,3.18
2019-02-16T05:14:56.525Z,3.14
2019-02-16T05:15:56.517Z,3.14
2019-02-16T05:16:56.507Z,3.17
2019-02-16T05:17:56.537Z,3.13
2019-02-16T05:18:56.484Z,3.13
2019-02-16T05:19:56.475Z,3.08
2019-02-16T05:20:56.466Z,3.03
2019-02-16T05:21:56.452Z,3.06
2019-02-16T05:22:56.442Z,3.05
2019-02-16T05:23:56.457Z,3.08
2019-02-16T05:24:56.419Z,3.03
2019-02-16T05:25:56.412Z,2.93
2019-02-16T05:26:56.399Z,2.99
2019-02-16T05:27:56.389Z,2.99
2019-02-16T05:28:56.416Z,2.92
2019-02-16T05:29:56.365Z,3.02
2019-02-16T05:30:56.359Z,2.92
2019-02-16T05:31:56.360Z,2.93
2019-02-16T05:32:56.333Z,2.90
2019-02-16T05:33:56.339Z,2.89
2019-02-16T05:34:56.377Z,2.90
2019-02-16T05:35:56.304Z,2.87
2019-02-16T05:36:56.290Z,2.92
2019-02-16T05:37:56.286Z,2.92
2019-02-16T05:38:56.273Z,2.89
2019-02-16T05:39:56.259Z,2.89
2019-02-16T05:40:56.275Z,2.84
2019-02-16T05:41:56.236Z,2.85
2019-02-16T05:42:56.226Z,2.85
2019-02-16T05:43:56.217Z,2.89
2019-02-16T05:44:56.204Z,2.87
2019-02-16T05:45:56.225Z,2.95
2019-02-16T05:46:56.196Z,2.90
2019-02-16T05:47:56.173Z,2.82
2019-02-16T05:48:56.169Z,2.92
2019-02-16T05:49:56.154Z,2.87
2019-02-16T05:50:56.166Z,2.93
2019-02-16T05:51:56.131Z,2.85
2019-02-16T05:52:56.119Z,2.78
2019-02-16T05:53:56.109Z,2.87
2019-02-16T05:54:56.097Z,2.81
2019-02-16T05:55:56.113Z,2.85
2019-02-16T05:56:56.079Z,2.82
2019-02-16T05:57:56.065Z,2.81
2019-02-16T05:58:56.055Z,2.79
2019-02-16T05:59:56.050Z,2.78
2019-02-16T06:00:56.077Z,2.74
2019-02-16T06:01:56.021Z,2.75
2019-02-16T06:02:56.016Z,2.75
2019-02-16T06:03:56.013Z,2.72
2019-02-16T06:04:55.993Z,2.74
2019-02-16T06:05:55.986Z,2.74
2019-02-16T06:06:56.041Z,2.81
2019-02-16T06:07:55.962Z,2.75
2019-02-16T06:08:55.959Z,2.74
2019-02-16T06:09:55.939Z,2.66
2019-02-16T06:10:55.932Z,2.64
2019-02-16T06:11:55.917Z,2.66
2019-02-16T06:12:55.943Z,2.61
2019-02-16T06:13:55.900Z,2.72
2019-02-16T06:14:55.890Z,2.78
2019-02-16T06:15:55.874Z,2.71
2019-02-16T06:16:55.869Z,2.67
2019-02-16T06:17:55.852Z,2.69
2019-02-16T06:18:55.868Z,2.67
2019-02-16T06:19:55.836Z,2.74
2019-02-16T06:20:55.829Z,2.72
2019-02-16T06:21:55.810Z,2.67
2019-02-16T06:23:03.731Z,2.69
2019-02-16T06:23:56.828Z,2.72
2019-02-16T06:24:55.778Z,2.78
2019-02-16T06:25:55.767Z,2.72
2019-02-16T06:26:55.761Z,2.78
2019-02-16T06:27:55.745Z,2.74
2019-02-16T06:28:55.736Z,2.82
2019-02-16T06:29:55.765Z,2.75
2019-02-16T06:30:55.717Z,2.72
2019-02-16T06:31:55.703Z,2.75
2019-02-16T06:32:55.699Z,2.77
2019-02-16T06:33:55.683Z,2.69
2019-02-16T06:34:55.672Z,2.74
2019-02-16T06:35:55.688Z,2.74
2019-02-16T06:36:55.651Z,2.72
2019-02-16T06:37:55.642Z,2.72
2019-02-16T06:38:55.638Z,2.79
2019-02-16T06:39:55.621Z,2.71
2019-02-16T06:40:55.634Z,2.82
2019-02-16T06:41:55.600Z,2.77
2019-02-16T06:42:55.591Z,2.84
2019-02-16T06:43:55.575Z,2.85
2019-02-16T06:44:55.568Z,2.77
2019-02-16T06:45:55.582Z,2.84
2019-02-16T06:46:55.544Z,2.78
2019-02-16T06:47:55.532Z,2.90
2019-02-16T06:48:55.527Z,2.77
2019-02-16T06:49:55.516Z,2.93
2019-02-16T06:50:55.531Z,2.92
2019-02-16T06:51:55.490Z,2.89
2019-02-16T06:52:55.480Z,2.85
2019-02-16T06:53:55.470Z,2.89
2019-02-16T06:54:55.461Z,2.99
2019-02-16T06:55:55.485Z,2.89
2019-02-16T06:56:55.437Z,2.96
2019-02-16T06:57:55.426Z,2.97
2019-02-16T06:58:55.419Z,2.95
2019-02-16T06:59:55.408Z,2.99
2019-02-16T07:00:55.419Z,3.02
2019-02-16T07:01:55.390Z,3.11
2019-02-16T07:02:55.395Z,3.08
2019-02-16T07:03:55.363Z,3.06
2019-02-16T07:04:55.352Z,3.03
2019-02-16T07:05:55.373Z,3.17
2019-02-16T07:06:55.330Z,3.14
2019-02-16T07:07:55.322Z,3.10
2019-02-16T07:08:55.309Z,3.13
2019-02-16T07:09:55.297Z,3.13
2019-02-16T07:10:55.313Z,3.29
2019-02-16T07:11:55.278Z,3.24
2019-02-16T07:12:55.269Z,3.28
2019-02-16T07:13:55.258Z,3.28
2019-02-16T07:14:55.247Z,3.33
2019-02-16T07:15:55.261Z,3.26
2019-02-16T07:16:55.223Z,3.39
2019-02-16T07:17:55.213Z,3.35
2019-02-16T07:18:55.201Z,3.42
2019-02-16T07:19:55.191Z,3.42
2019-02-16T07:20:55.209Z,3.52
2019-02-16T07:21:55.170Z,3.45
2019-02-16T07:22:55.160Z,3.51
2019-02-16T07:23:55.153Z,3.61
2019-02-16T07:24:55.160Z,3.54
2019-02-16T07:25:55.150Z,3.65
2019-02-16T07:26:55.119Z,3.60
2019-02-16T07:27:55.106Z,3.61
2019-02-16T07:28:55.096Z,3.68
2019-02-16T07:29:55.085Z,3.66
2019-02-16T07:30:55.104Z,3.79
2019-02-16T07:31:55.072Z,3.72
2019-02-16T07:32:55.054Z,3.73
2019-02-16T07:33:55.043Z,3.75
2019-02-16T07:34:55.033Z,3.80
2019-02-16T07:35:55.047Z,3.87
2019-02-16T07:36:55.015Z,3.91
2019-02-16T07:37:55.000Z,4.00
2019-02-16T07:38:54.998Z,3.96
2019-02-16T07:39:54.980Z,4.11
2019-02-16T07:40:54.997Z,4.12
2019-02-16T07:41:57.230Z,4.23
2019-02-16T07:42:54.947Z,4.12
2019-02-16T07:43:54.994Z,4.27
2019-02-16T07:44:54.934Z,4.30
2019-02-16T07:45:55.001Z,4.40
2019-02-16T07:46:54.905Z,4.37
2019-02-16T07:47:54.904Z,4.54
2019-02-16T07:48:54.900Z,4.52
2019-02-16T07:49:54.903Z,4.59
2019-02-16T07:50:54.937Z,4.60
2019-02-16T07:51:54.931Z,4.60
2019-02-16T07:52:54.850Z,4.66
2019-02-16T07:53:54.836Z,4.63
2019-02-16T07:54:54.871Z,4.70
2019-02-16T07:55:54.818Z,4.72
2019-02-16T07:56:54.839Z,4.84
2019-02-16T07:57:54.795Z,4.80
2019-02-16T07:58:54.782Z,4.82
2019-02-16T07:59:54.769Z,4.84
2019-02-16T08:00:54.758Z,4.99
2019-02-16T08:01:56.731Z,4.96
2019-02-16T08:02:54.782Z,5.07
2019-02-16T08:03:54.730Z,5.12
2019-02-16T08:04:54.714Z,5.07
2019-02-16T08:05:54.703Z,5.17
2019-02-16T08:06:54.698Z,5.21
2019-02-16T08:07:54.681Z,5.28
2019-02-16T08:08:54.710Z,5.28
2019-02-16T08:09:54.661Z,5.38
2019-02-16T08:10:54.661Z,5.30
2019-02-16T08:11:54.639Z,5.38
2019-02-16T08:12:54.630Z,5.48
2019-02-16T08:13:54.617Z,5.48
2019-02-16T08:14:54.651Z,5.51
2019-02-16T08:15:54.604Z,5.46
2019-02-16T08:16:54.586Z,5.64
2019-02-16T08:17:54.574Z,5.63
2019-02-16T08:18:54.563Z,5.75
2019-02-16T08:19:54.574Z,5.71
2019-02-16T08:20:54.589Z,5.74
2019-02-16T08:21:54.531Z,5.85
2019-02-16T08:22:54.523Z,5.85
2019-02-16T08:23:54.521Z,5.96
2019-02-16T08:24:54.503Z,5.91
2019-02-16T08:25:54.491Z,6.03
2019-02-16T08:26:54.548Z,6.06
2019-02-16T08:27:54.483Z,6.09
2019-02-16T08:28:54.459Z,6.08
2019-02-16T08:29:54.447Z,6.19
2019-02-16T08:30:54.438Z,6.27
2019-02-16T08:31:54.425Z,6.30
2019-02-16T08:32:54.458Z,6.38
2019-02-16T08:33:54.406Z,6.43
2019-02-16T08:34:54.394Z,6.48
2019-02-16T08:35:54.384Z,6.46
2019-02-16T08:36:54.373Z,6.48
2019-02-16T08:37:54.375Z,6.66
2019-02-16T08:38:54.398Z,6.71
2019-02-16T08:39:54.341Z,6.71
2019-02-16T08:40:54.330Z,6.69
2019-02-16T08:41:54.318Z,6.79
2019-02-16T08:42:54.311Z,6.80
2019-02-16T08:43:54.298Z,6.89
2019-02-16T08:44:54.324Z,6.79
2019-02-16T08:45:54.275Z,6.99
2019-02-16T08:46:54.264Z,6.95
2019-02-16T08:47:54.255Z,7.03
2019-02-16T08:48:54.263Z,7.10
2019-02-16T08:49:54.233Z,7.09
2019-02-16T08:50:54.263Z,7.12
2019-02-16T08:51:54.251Z,7.23
2019-02-16T08:52:54.202Z,7.30
2019-02-16T08:53:54.189Z,7.35
2019-02-16T08:54:54.177Z,7.40
2019-02-16T08:55:54.172Z,7.46
2019-02-16T08:56:54.199Z,7.53
2019-02-16T08:57:54.146Z,7.52
2019-02-16T08:58:54.139Z,7.60
2019-02-16T08:59:54.129Z,7.60
2019-02-16T09:00:54.115Z,7.68
2019-02-16T09:01:54.108Z,7.86
2019-02-16T09:02:54.135Z,7.80
2019-02-16T09:03:54.087Z,7.86
2019-02-16T09:04:54.073Z,7.85
2019-02-16T09:05:54.070Z,7.92
2019-02-16T09:06:54.052Z,7.98
2019-02-16T09:07:54.044Z,8.02
2019-02-16T09:08:54.068Z,8.10
2019-02-16T09:09:54.021Z,8.16
2019-02-16T09:10:54.010Z,8.04
2019-02-16T09:11:54.013Z,8.19
2019-02-16T09:12:54.018Z,8.20
2019-02-16T09:13:53.980Z,8.16
2019-02-16T09:14:54.008Z,8.33
2019-02-16T09:15:53.959Z,8.34
2019-02-16T09:16:53.946Z,8.38
2019-02-16T09:17:53.934Z,8.48
2019-02-16T09:18:53.923Z,8.53
2019-02-16T09:19:53.919Z,8.52
2019-02-16T09:20:53.967Z,8.59
2019-02-16T09:21:53.889Z,8.65
2019-02-16T09:22:53.880Z,8.65
2019-02-16T09:23:59.203Z,8.71
2019-02-16T09:24:54.855Z,8.71
2019-02-16T09:25:53.846Z,8.73
2019-02-16T09:26:53.871Z,8.83
2019-02-16T09:27:53.828Z,8.89
2019-02-16T09:28:53.816Z,8.92
2019-02-16T09:29:53.803Z,8.95
2019-02-16T09:30:53.798Z,9.02
2019-02-16T09:31:53.782Z,9.05
2019-02-16T09:32:53.807Z,9.11
2019-02-16T09:33:53.759Z,9.15
2019-02-16T09:34:53.754Z,9.24
2019-02-16T09:35:53.740Z,9.20
2019-02-16T09:36:53.727Z,9.20
2019-02-16T09:37:53.716Z,9.36
2019-02-16T09:38:53.747Z,9.33
2019-02-16T09:39:53.699Z,9.42
2019-02-16T09:40:53.701Z,9.39
2019-02-16T09:41:53.675Z,9.42
2019-02-16T09:42:53.660Z,9.53
2019-02-16T09:43:53.669Z,9.58
2019-02-16T09:44:53.705Z,9.56
2019-02-16T09:45:53.631Z,9.58
2019-02-16T09:46:53.620Z,9.57
2019-02-16T09:47:53.608Z,9.71
2019-02-16T09:48:53.606Z,9.72
2019-02-16T09:49:53.600Z,9.66
2019-02-16T09:50:53.618Z,9.79
2019-02-16T09:51:53.566Z,9.75
2019-02-16T09:52:53.576Z,9.81
2019-02-16T09:53:53.552Z,9.90
2019-02-16T09:54:53.536Z,9.94
2019-02-16T09:55:53.522Z,9.99
2019-02-16T09:56:53.557Z,10.04
2019-02-16T09:57:53.500Z,10.08
2019-02-16T09:58:53.492Z,10.08
2019-02-16T09:59:53.480Z,10.08
2019-02-16T10:00:53.472Z,10.07
2019-02-16T10:01:53.471Z,10.12
2019-02-16T10:02:53.515Z,10.25
2019-02-16T10:03:53.463Z,10.15
2019-02-16T10:04:53.426Z,10.17
2019-02-16T10:05:53.420Z,10.25
2019-02-16T10:06:53.403Z,10.30
2019-02-16T10:07:53.398Z,10.26
2019-02-16T10:08:53.418Z,10.25
2019-02-16T10:09:53.373Z,10.30
2019-02-16T10:10:53.362Z,10.30
2019-02-16T10:11:53.353Z,10.38
2019-02-16T10:12:53.339Z,10.42
2019-02-16T10:13:53.329Z,10.44
2019-02-16T10:14:53.359Z,10.53
2019-02-16T10:15:53.307Z,10.52
2019-02-16T10:16:53.298Z,10.48
2019-02-16T10:17:53.290Z,10.52
2019-02-16T10:18:53.279Z,10.66
2019-02-16T10:19:53.265Z,10.64
2019-02-16T10:20:53.399Z,10.76
2019-02-16T10:21:53.246Z,10.68
2019-02-16T10:22:53.234Z,10.74
2019-02-16T10:23:53.222Z,10.79
2019-02-16T10:24:53.215Z,10.86
2019-02-16T10:25:54.969Z,10.94
2019-02-16T10:26:53.252Z,10.89
2019-02-16T10:27:53.179Z,11.00
2019-02-16T10:28:53.185Z,11.14
2019-02-16T10:29:53.160Z,11.15
2019-02-16T10:30:53.155Z,11.21
2019-02-16T10:31:53.145Z,11.17
2019-02-16T10:32:53.160Z,11.32
2019-02-16T10:33:53.170Z,11.32
2019-02-16T10:34:53.108Z,11.40
2019-02-16T10:35:53.096Z,11.37
2019-02-16T10:36:53.080Z,11.40
2019-02-16T10:37:53.069Z,11.46
2019-02-16T10:38:53.098Z,11.43
2019-02-16T10:39:53.048Z,11.69
2019-02-16T10:40:53.039Z,11.72
2019-02-16T10:41:53.030Z,11.76
2019-02-16T10:42:53.016Z,11.86
2019-02-16T10:43:53.003Z,11.91
2019-02-16T10:44:53.031Z,12.09
2019-02-16T10:45:52.989Z,12.13
2019-02-16T10:46:52.978Z,12.27
2019-02-16T10:47:52.962Z,12.31
2019-02-16T10:48:52.954Z,12.31
2019-02-16T10:49:52.942Z,12.35
2019-02-16T10:50:52.970Z,12.35
2019-02-16T10:51:52.923Z,12.34
2019-02-16T10:52:52.916Z,12.49
2019-02-16T10:53:52.897Z,12.53
2019-02-16T10:54:52.893Z,12.65
2019-02-16T10:55:52.888Z,12.71
2019-02-16T10:56:52.928Z,12.74
2019-02-16T10:57:52.856Z,12.85
2019-02-16T10:58:52.845Z,12.82
2019-02-16T10:59:52.833Z,12.86
2019-02-16T11:00:52.834Z,13.08
2019-02-16T11:01:52.811Z,13.10
2019-02-16T11:02:52.825Z,13.29
2019-02-16T11:03:52.790Z,13.45
2019-02-16T11:04:52.779Z,13.81
2019-02-16T11:05:52.796Z,14.21
2019-02-16T11:06:52.758Z,14.84
2019-02-16T11:07:52.747Z,15.11
2019-02-16T11:08:52.747Z,15.53
2019-02-16T11:09:52.740Z,15.87
2019-02-16T11:10:52.757Z,16.49
2019-02-16T11:11:52.703Z,16.96
2019-02-16T11:12:52.694Z,17.36
2019-02-16T11:13:52.684Z,17.64
2019-02-16T11:14:52.673Z,17.95
2019-02-16T11:15:52.690Z,18.18
2019-02-16T11:16:53.647Z,18.20
2019-02-16T11:17:52.639Z,18.20
2019-02-16T11:18:52.626Z,18.36
2019-02-16T11:19:52.619Z,18.70
2019-02-16T11:20:52.646Z,18.80
2019-02-16T11:21:52.602Z,19.14
2019-02-16T11:22:52.585Z,19.43
2019-02-16T11:23:52.575Z,19.46
2019-02-16T11:24:52.565Z,19.66
2019-02-16T11:25:52.574Z,19.94
2019-02-16T11:26:52.545Z,20.21
2019-02-16T11:27:52.530Z,20.48
2019-02-16T11:28:52.524Z,20.67
2019-02-16T11:29:52.512Z,20.11
2019-02-16T11:30:52.534Z,20.03
2019-02-16T11:31:52.497Z,19.88
2019-02-16T11:32:52.478Z,19.98
2019-02-16T11:33:52.469Z,20.38
2019-02-16T11:34:52.458Z,20.59
2019-02-16T11:35:52.473Z,20.67
2019-02-16T11:36:52.438Z,20.84
2019-02-16T11:37:52.425Z,20.88
2019-02-16T11:38:52.414Z,20.88
2019-02-16T11:39:52.405Z,20.80
2019-02-16T11:40:52.417Z,20.62
2019-02-16T11:41:52.381Z,20.33
2019-02-16T11:42:52.376Z,20.02
2019-02-16T11:43:52.364Z,19.92
2019-02-16T11:44:52.349Z,19.92
2019-02-16T11:45:52.363Z,20.20
2019-02-16T11:46:52.327Z,20.24
2019-02-16T11:47:52.316Z,20.29
2019-02-16T11:48:52.337Z,20.50
2019-02-16T11:49:52.295Z,20.48
2019-02-16T11:50:52.735Z,20.16
2019-02-16T11:51:52.276Z,19.95
2019-02-16T11:52:52.264Z,19.81
2019-02-16T11:53:52.255Z,19.59
2019-02-16T11:54:52.244Z,19.50
2019-02-16T11:55:52.270Z,19.54
2019-02-16T11:56:52.222Z,19.43
2019-02-16T11:57:59.250Z,19.32
2019-02-16T11:58:52.203Z,19.23
2019-02-16T11:59:52.195Z,19.08
2019-02-16T12:00:52.205Z,19.21
2019-02-16T12:01:52.172Z,18.95
2019-02-16T12:02:52.159Z,19.06
2019-02-16T12:03:52.149Z,19.14
2019-02-16T12:04:52.137Z,19.23
2019-02-16T12:05:52.159Z,19.33
2019-02-16T12:06:52.119Z,19.55
2019-02-16T12:07:52.107Z,19.66
2019-02-16T12:08:52.093Z,19.71
2019-02-16T12:09:52.083Z,19.65
2019-02-16T12:10:52.096Z,19.50
2019-02-16T12:11:52.063Z,19.66
2019-02-16T12:12:52.049Z,19.77
2019-02-16T12:13:52.040Z,19.87
2019-02-16T12:14:52.030Z,20.02
2019-02-16T12:15:52.085Z,20.06
2019-02-16T12:16:52.014Z,20.21
2019-02-16T12:17:51.997Z,20.16
2019-02-16T12:18:51.993Z,20.11
2019-02-16T12:19:51.977Z,19.96
2019-02-16T12:20:52.022Z,20.06
2019-02-16T12:21:51.958Z,20.21
2019-02-16T12:22:51.945Z,20.05
2019-02-16T12:23:51.992Z,20.06
2019-02-16T12:25:04.840Z,19.94
2019-02-16T12:25:52.955Z,19.99
2019-02-16T12:26:51.904Z,19.94
2019-02-16T12:27:51.897Z,20.10
2019-02-16T12:28:51.891Z,20.02
2019-02-16T12:29:51.877Z,19.96
2019-02-16T12:30:51.865Z,20.14
2019-02-16T12:31:51.895Z,20.08
2019-02-16T12:32:51.845Z,19.96
2019-02-16T12:33:51.832Z,19.69
2019-02-16T12:34:51.823Z,19.63
2019-02-16T12:35:51.815Z,19.51
2019-02-16T12:36:51.806Z,19.56
2019-02-16T12:37:51.829Z,19.65
2019-02-16T12:38:51.780Z,19.65
2019-02-16T12:39:51.770Z,19.63
2019-02-16T12:40:51.761Z,19.62
2019-02-16T12:41:51.756Z,19.62
2019-02-16T12:42:51.739Z,19.65
2019-02-16T12:43:51.771Z,19.63
2019-02-16T12:44:51.718Z,19.65
2019-02-16T12:45:51.707Z,19.78
2019-02-16T12:46:51.697Z,19.71
2019-02-16T12:47:51.686Z,19.71
2019-02-16T12:48:51.676Z,19.77
2019-02-16T12:49:51.702Z,19.87
2019-02-16T12:50:51.653Z,19.77
2019-02-16T12:51:51.644Z,19.83
2019-02-16T12:52:51.634Z,19.81
2019-02-16T12:53:51.626Z,19.48
2019-02-16T12:54:51.612Z,19.40
2019-02-16T12:55:51.637Z,19.47
2019-02-16T12:56:51.591Z,19.62
2019-02-16T12:57:51.580Z,19.68
2019-02-16T12:58:51.570Z,19.56
2019-02-16T12:59:51.559Z,19.51
2019-02-16T13:00:51.548Z,19.61
2019-02-16T13:01:51.575Z,19.73
2019-02-16T13:02:51.527Z,19.69
2019-02-16T13:03:51.516Z,19.83
2019-02-16T13:04:51.509Z,19.80
2019-02-16T13:05:51.495Z,19.68
2019-02-16T13:06:51.487Z,19.66
2019-02-16T13:07:51.512Z,19.62
2019-02-16T13:08:51.476Z,19.68
2019-02-16T13:09:51.452Z,19.63
2019-02-16T13:10:51.448Z,19.71
2019-02-16T13:11:51.436Z,19.84